createdAt,value
2017-12-03T00:01:03.131Z,-0.60
2017-12-03T00:03:30.671Z,-0.60
2017-12-03T00:05:58.962Z,-0.60
2017-12-03T00:08:26.510Z,-0.60
2017-12-03T00:10:54.809Z,-0.60
2017-12-03T00:13:22.350Z,-0.60
2017-12-03T00:15:50.632Z,-0.50
2017-12-03T00:18:18.173Z,-0.60
2017-12-03T00:20:46.456Z,-0.50
2017-12-03T00:23:14.760Z,-0.60
2017-12-03T00:25:42.282Z,-0.60
2017-12-03T00:28:09.826Z,-0.60
2017-12-03T00:30:37.352Z,-0.60
2017-12-03T00:33:04.875Z,-0.60
2017-12-03T00:35:33.184Z,-0.70
2017-12-03T00:38:00.705Z,-0.70
2017-12-03T00:40:28.247Z,-0.70
2017-12-03T00:42:56.562Z,-0.70
2017-12-03T00:45:24.868Z,-0.70
2017-12-03T00:47:52.398Z,-0.70
2017-12-03T00:50:20.706Z,-0.70
2017-12-03T00:52:48.224Z,-0.70
2017-12-03T00:55:15.789Z,-0.80
2017-12-03T00:57:44.074Z,-0.80
2017-12-03T01:00:12.357Z,-0.80
2017-12-03T01:02:40.659Z,-0.80
2017-12-03T01:05:08.179Z,-0.80
2017-12-03T01:07:36.486Z,-0.70
2017-12-03T01:10:04.006Z,-0.70
2017-12-03T01:12:31.543Z,-0.70
2017-12-03T01:14:59.067Z,-0.70
2017-12-03T01:17:26.606Z,-0.70
2017-12-03T01:19:54.890Z,-0.70
2017-12-03T01:22:23.242Z,-0.80
2017-12-03T01:24:50.763Z,-0.80
2017-12-03T01:27:18.302Z,-0.80
2017-12-03T01:29:45.828Z,-0.80
2017-12-03T01:32:13.367Z,-0.80
2017-12-03T01:34:40.913Z,-0.80
2017-12-03T01:37:08.449Z,-0.80
2017-12-03T01:39:35.971Z,-0.70
2017-12-03T01:42:03.515Z,-0.70
2017-12-03T01:44:31.035Z,-0.70
2017-12-03T01:46:58.590Z,-0.70
2017-12-03T01:49:26.116Z,-0.70
2017-12-03T01:51:54.406Z,-0.80
2017-12-03T01:54:22.711Z,-0.80
2017-12-03T01:56:50.235Z,-0.80
2017-12-03T01:59:18.546Z,-0.80
2017-12-03T02:01:46.067Z,-0.80
2017-12-03T02:04:14.384Z,-0.80
2017-12-03T02:06:41.910Z,-0.80
2017-12-03T02:09:10.213Z,-0.80
2017-12-03T02:11:37.741Z,-0.80
2017-12-03T02:14:06.054Z,-0.80
2017-12-03T02:16:33.565Z,-0.80
2017-12-03T02:19:01.101Z,-0.80
2017-12-03T02:21:28.613Z,-0.80
2017-12-03T02:23:56.939Z,-0.80
2017-12-03T02:26:24.541Z,-0.80
2017-12-03T02:28:52.830Z,-0.80
2017-12-03T02:31:21.134Z,-0.80
2017-12-03T02:33:48.653Z,-0.80
2017-12-03T02:36:16.962Z,-0.80
2017-12-03T02:38:44.487Z,-0.80
2017-12-03T02:41:12.021Z,-0.80
2017-12-03T02:43:39.563Z,-0.80
2017-12-03T02:46:07.099Z,-0.80
2017-12-03T02:48:34.626Z,-0.80
2017-12-03T02:51:02.161Z,-0.80
2017-12-03T02:53:29.686Z,-0.80
2017-12-03T02:55:57.230Z,-0.80
2017-12-03T02:58:25.518Z,-0.80
2017-12-03T03:00:53.061Z,-0.80
2017-12-03T03:03:21.341Z,-0.90
2017-12-03T03:05:49.626Z,-0.90
2017-12-03T03:08:17.939Z,-0.90
2017-12-03T03:10:45.457Z,-0.90
2017-12-03T03:13:13.765Z,-0.90
2017-12-03T03:15:41.290Z,-0.90
2017-12-03T03:18:09.599Z,-1.00
2017-12-03T03:20:37.112Z,-0.90
2017-12-03T03:23:04.646Z,-0.90
2017-12-03T03:25:32.170Z,-0.90
2017-12-03T03:27:59.707Z,-1.00
2017-12-03T03:30:27.991Z,-1.00
2017-12-03T03:32:56.289Z,-1.00
2017-12-03T03:35:23.818Z,-1.00
2017-12-03T03:37:51.353Z,-1.00
2017-12-03T03:40:18.869Z,-1.00
2017-12-03T03:42:46.434Z,-1.00
2017-12-03T03:45:13.959Z,-1.00
2017-12-03T03:47:41.497Z,-1.00
2017-12-03T03:50:09.016Z,-1.00
2017-12-03T03:52:36.562Z,-1.00
2017-12-03T03:55:04.882Z,-1.10
2017-12-03T03:57:32.414Z,-1.10
2017-12-03T03:59:59.938Z,-1.10
2017-12-03T04:02:27.477Z,-1.00
2017-12-03T04:04:55.003Z,-1.10
2017-12-03T04:07:22.542Z,-1.10
2017-12-03T04:09:50.067Z,-1.10
2017-12-03T04:12:17.611Z,-1.10
2017-12-03T04:14:45.902Z,-1.10
2017-12-03T04:17:13.451Z,-1.10
2017-12-03T04:19:40.980Z,-1.10
2017-12-03T04:22:08.522Z,-1.10
2017-12-03T04:24:36.044Z,-1.10
2017-12-03T04:27:03.595Z,-1.20
2017-12-03T04:29:31.110Z,-1.10
2017-12-03T04:31:58.646Z,-1.10
2017-12-03T04:34:26.938Z,-1.10
2017-12-03T04:36:54.483Z,-1.10
2017-12-03T04:39:22.764Z,-1.10
2017-12-03T04:41:51.075Z,-1.10
2017-12-03T04:44:18.604Z,-1.20
2017-12-03T04:46:46.889Z,-1.10
2017-12-03T04:49:15.199Z,-1.20
2017-12-03T04:51:42.717Z,-1.20
2017-12-03T04:54:11.027Z,-1.20
2017-12-03T04:56:38.554Z,-1.20
2017-12-03T04:59:06.862Z,-1.20
2017-12-03T05:01:34.393Z,-1.20
2017-12-03T05:04:02.704Z,-1.20
2017-12-03T05:06:30.262Z,-1.20
2017-12-03T05:08:57.801Z,-1.30
2017-12-03T05:11:26.094Z,-1.30
2017-12-03T05:13:53.639Z,-1.30
2017-12-03T05:16:21.171Z,-1.30
2017-12-03T05:18:48.714Z,-1.30
2017-12-03T05:21:17.003Z,-1.30
2017-12-03T05:23:44.547Z,-1.30
2017-12-03T05:26:12.070Z,-1.30
2017-12-03T05:28:39.606Z,-1.30
2017-12-03T05:31:07.898Z,-1.30
2017-12-03T05:33:36.201Z,-1.30
2017-12-03T05:36:03.725Z,-1.40
2017-12-03T05:38:32.034Z,-1.30
2017-12-03T05:40:59.557Z,-1.40
2017-12-03T05:43:27.114Z,-1.40
2017-12-03T05:45:54.679Z,-1.30
2017-12-03T05:48:22.202Z,-1.30
2017-12-03T05:50:49.725Z,-1.30
2017-12-03T05:53:17.262Z,-1.30
2017-12-03T05:55:45.554Z,-1.40
2017-12-03T05:58:13.118Z,-1.40
2017-12-03T06:00:40.640Z,-1.40
2017-12-03T06:03:08.161Z,-1.40
2017-12-03T06:05:35.701Z,-1.40
2017-12-03T06:08:03.231Z,-1.40
2017-12-03T06:10:30.774Z,-1.40
2017-12-03T06:12:58.294Z,-1.40
2017-12-03T06:15:25.878Z,-1.40
2017-12-03T06:17:54.165Z,-1.40
2017-12-03T06:20:21.701Z,-1.50
2017-12-03T06:22:49.230Z,-1.50
2017-12-03T06:25:17.535Z,-1.50
2017-12-03T06:27:45.072Z,-1.50
2017-12-03T06:30:13.386Z,-1.50
2017-12-03T06:32:40.910Z,-1.50
2017-12-03T06:35:09.190Z,-1.50
2017-12-03T06:37:36.730Z,-1.50
2017-12-03T06:40:05.022Z,-1.50
2017-12-03T06:42:33.327Z,-1.50
2017-12-03T06:45:00.850Z,-1.50
2017-12-03T06:47:29.242Z,-1.50
2017-12-03T06:49:57.530Z,-1.50
2017-12-03T06:52:25.080Z,-1.50
2017-12-03T06:54:53.365Z,-1.50
2017-12-03T06:57:20.913Z,-1.50
2017-12-03T06:59:49.197Z,-1.50
2017-12-03T07:02:17.497Z,-1.50
2017-12-03T07:04:45.017Z,-1.50
2017-12-03T07:07:12.557Z,-1.50
2017-12-03T07:09:40.082Z,-1.50
2017-12-03T07:12:07.618Z,-1.40
2017-12-03T07:14:35.153Z,-1.40
2017-12-03T07:17:02.674Z,-1.50
2017-12-03T07:19:30.215Z,-1.50
2017-12-03T07:21:57.729Z,-1.40
2017-12-03T07:24:25.295Z,-1.50
2017-12-03T07:26:52.822Z,-1.50
2017-12-03T07:29:20.367Z,-1.50
2017-12-03T07:31:47.894Z,-1.50
2017-12-03T07:34:16.207Z,-1.50
2017-12-03T07:36:43.734Z,-1.50
2017-12-03T07:39:12.042Z,-1.50
2017-12-03T07:41:39.574Z,-1.60
2017-12-03T07:44:07.892Z,-1.70
2017-12-03T07:46:35.419Z,-1.60
2017-12-03T07:49:02.966Z,-1.70
2017-12-03T07:51:31.262Z,-1.70
2017-12-03T07:53:58.806Z,-1.70
2017-12-03T07:56:27.090Z,-1.70
2017-12-03T07:58:54.634Z,-1.80
2017-12-03T08:01:22.927Z,-1.70
2017-12-03T08:03:51.239Z,-1.70
2017-12-03T08:06:18.762Z,-1.70
2017-12-03T08:08:47.062Z,-1.70
2017-12-03T08:11:14.584Z,-1.70
2017-12-03T08:13:42.146Z,-1.70
2017-12-03T08:16:09.674Z,-1.80
2017-12-03T08:18:37.194Z,-1.80
2017-12-03T08:21:04.789Z,-1.80
2017-12-03T08:23:32.345Z,-1.80
2017-12-03T08:25:59.882Z,-1.80
2017-12-03T08:28:27.411Z,-1.70
2017-12-03T08:30:55.717Z,-1.70
2017-12-03T08:33:23.237Z,-1.70
2017-12-03T08:35:50.773Z,-1.80
2017-12-03T08:38:18.298Z,-1.70
2017-12-03T08:40:45.837Z,-1.80
2017-12-03T08:43:14.125Z,-1.70
2017-12-03T08:45:42.455Z,-1.70
2017-12-03T08:48:09.973Z,-1.70
2017-12-03T08:50:37.501Z,-1.70
2017-12-03T08:53:05.046Z,-1.60
2017-12-03T08:55:32.578Z,-1.60
2017-12-03T08:58:00.126Z,-1.60
2017-12-03T09:00:27.654Z,-1.60
2017-12-03T09:02:55.965Z,-1.60
2017-12-03T09:05:23.490Z,-1.60
2017-12-03T09:07:51.806Z,-1.70
2017-12-03T09:10:19.330Z,-1.70
2017-12-03T09:12:47.633Z,-1.70
2017-12-03T09:15:15.150Z,-1.70
2017-12-03T09:17:42.694Z,-1.70
2017-12-03T09:20:10.217Z,-1.70
2017-12-03T09:22:37.738Z,-1.70
2017-12-03T09:25:05.282Z,-1.70
2017-12-03T09:27:32.809Z,-1.80
2017-12-03T09:30:00.354Z,-1.80
2017-12-03T09:32:27.879Z,-1.80
2017-12-03T09:34:55.426Z,-1.90
2017-12-03T09:37:22.950Z,-1.80
2017-12-03T09:39:50.499Z,-1.80
2017-12-03T09:42:18.029Z,-1.80
2017-12-03T09:44:46.349Z,-1.80
2017-12-03T09:47:13.873Z,-1.80
2017-12-03T09:49:42.182Z,-1.70
2017-12-03T09:52:09.716Z,-1.80
2017-12-03T09:54:38.026Z,-1.80
2017-12-03T09:57:05.551Z,-1.80
2017-12-03T09:59:33.854Z,-1.60
2017-12-03T10:02:01.382Z,-1.60
2017-12-03T10:04:28.921Z,-1.60
2017-12-03T10:06:56.448Z,-1.50
2017-12-03T10:09:23.994Z,-1.40
2017-12-03T10:11:51.518Z,-1.50
2017-12-03T10:14:19.072Z,-1.40
2017-12-03T10:16:46.602Z,-1.30
2017-12-03T10:19:14.147Z,-1.30
2017-12-03T10:21:41.673Z,-1.30
2017-12-03T10:24:09.982Z,-1.20
2017-12-03T10:26:37.515Z,-1.30
2017-12-03T10:29:05.823Z,-1.00
2017-12-03T10:31:33.345Z,-1.00
2017-12-03T10:34:00.906Z,-0.80
2017-12-03T10:36:28.446Z,-0.60
2017-12-03T10:38:55.970Z,-0.50
2017-12-03T10:41:23.521Z,-0.60
2017-12-03T10:43:51.051Z,-0.60
2017-12-03T10:46:18.601Z,-0.70
2017-12-03T10:48:46.125Z,-0.70
2017-12-03T10:51:13.670Z,-0.70
2017-12-03T10:53:41.245Z,-0.80
2017-12-03T10:56:08.780Z,-0.70
2017-12-03T10:58:37.063Z,-0.80
2017-12-03T11:01:04.616Z,-0.80
2017-12-03T11:03:32.944Z,-0.70
2017-12-03T11:06:00.485Z,-0.80
2017-12-03T11:08:28.011Z,-0.80
2017-12-03T11:10:55.594Z,-0.90
2017-12-03T11:13:23.127Z,-0.90
2017-12-03T11:15:51.414Z,-0.90
2017-12-03T11:18:19.721Z,-0.80
2017-12-03T11:20:47.241Z,-0.80
2017-12-03T11:23:15.556Z,-0.70
2017-12-03T11:25:43.088Z,-0.70
2017-12-03T11:28:11.392Z,-0.70
2017-12-03T11:30:38.923Z,-0.70
2017-12-03T11:33:07.224Z,-0.60
2017-12-03T11:35:34.747Z,-0.60
2017-12-03T11:38:02.291Z,-0.60
2017-12-03T11:40:29.819Z,-0.60
2017-12-03T11:42:57.375Z,-0.60
2017-12-03T11:45:24.898Z,-0.50
2017-12-03T11:47:53.211Z,-0.70
2017-12-03T11:50:20.734Z,-0.70
2017-12-03T11:52:48.280Z,-0.70
2017-12-03T11:55:15.815Z,-0.80
2017-12-03T11:57:43.354Z,-0.70
2017-12-03T12:00:10.898Z,-0.80
2017-12-03T12:02:38.428Z,-0.80
2017-12-03T12:05:05.970Z,-0.80
2017-12-03T12:07:33.494Z,-0.80
2017-12-03T12:10:01.033Z,-0.80
2017-12-03T12:12:28.569Z,-0.80
2017-12-03T12:14:56.105Z,-0.80
2017-12-03T12:17:23.685Z,-0.80
2017-12-03T12:19:51.226Z,-0.80
2017-12-03T12:22:18.756Z,-0.80
2017-12-03T12:24:46.306Z,-0.80
2017-12-03T12:27:13.830Z,-0.90
2017-12-03T12:29:41.375Z,-0.90
2017-12-03T12:32:08.902Z,-0.90
2017-12-03T12:34:36.439Z,-1.00
2017-12-03T12:37:04.732Z,-1.10
2017-12-03T12:39:32.320Z,-1.20
2017-12-03T12:41:59.839Z,-1.20
2017-12-03T12:44:27.362Z,-1.20
2017-12-03T12:46:54.907Z,-1.20
2017-12-03T12:49:22.436Z,-1.20
2017-12-03T12:51:49.979Z,-1.20
2017-12-03T12:54:18.268Z,-1.10
2017-12-03T12:56:45.811Z,-1.10
2017-12-03T12:59:14.093Z,-1.00
2017-12-03T13:01:42.402Z,-1.10
2017-12-03T13:04:09.921Z,-1.10
2017-12-03T13:06:38.240Z,-1.10
2017-12-03T13:09:05.757Z,-1.10
2017-12-03T13:11:34.067Z,-1.10
2017-12-03T13:14:01.592Z,-1.10
2017-12-03T13:16:29.947Z,-1.10
2017-12-03T13:18:57.463Z,-1.10
2017-12-03T13:21:24.998Z,-1.10
2017-12-03T13:23:53.306Z,-1.10
2017-12-03T13:26:20.830Z,-1.10
2017-12-03T13:28:49.132Z,-1.10
2017-12-03T13:31:16.653Z,-1.10
2017-12-03T13:33:44.202Z,-1.10
2017-12-03T13:36:11.726Z,-1.00
2017-12-03T13:38:39.260Z,-1.00
2017-12-03T13:41:07.551Z,-1.00
2017-12-03T13:43:35.102Z,-1.00
2017-12-03T13:46:03.508Z,-1.10
2017-12-03T13:48:31.055Z,-1.10
2017-12-03T13:50:58.581Z,-1.10
2017-12-03T13:53:27.730Z,-1.10
2017-12-03T13:55:55.255Z,-1.10
2017-12-03T13:58:23.580Z,-1.20
2017-12-03T14:00:51.104Z,-1.20
2017-12-03T14:03:18.625Z,-1.20
2017-12-03T14:05:46.170Z,-1.20
2017-12-03T14:08:14.466Z,-1.20
2017-12-03T14:10:42.010Z,-1.30
2017-12-03T14:13:09.534Z,-1.30
2017-12-03T14:15:37.084Z,-1.40
2017-12-03T14:18:04.611Z,-1.40
2017-12-03T14:20:32.160Z,-1.40
2017-12-03T14:22:59.687Z,-1.40
2017-12-03T14:25:27.256Z,-1.40
2017-12-03T14:27:54.781Z,-1.30
2017-12-03T14:30:22.332Z,-1.30
2017-12-03T14:32:50.655Z,-1.30
2017-12-03T14:35:18.199Z,-1.30
2017-12-03T14:37:45.721Z,-1.30
2017-12-03T14:40:14.030Z,-1.30
2017-12-03T14:42:41.555Z,-1.30
2017-12-03T14:45:09.096Z,-1.30
2017-12-03T14:47:39.650Z,-1.30
2017-12-03T14:50:07.966Z,-1.30
2017-12-03T14:52:35.496Z,-1.30
2017-12-03T14:55:03.803Z,-1.40
2017-12-03T14:57:31.321Z,-1.40
2017-12-03T14:59:58.899Z,-1.40
2017-12-03T15:02:27.193Z,-1.50
2017-12-03T15:04:54.722Z,-1.50
2017-12-03T15:07:22.266Z,-1.50
2017-12-03T15:09:49.795Z,-1.60
2017-12-03T15:12:17.342Z,-1.60
2017-12-03T15:14:44.870Z,-1.60
2017-12-03T15:17:13.178Z,-1.50
2017-12-03T15:19:40.711Z,-1.60
2017-12-03T15:22:09.023Z,-1.60
2017-12-03T15:24:36.551Z,-1.60
2017-12-03T15:27:04.882Z,-1.60
2017-12-03T15:29:32.397Z,-1.60
2017-12-03T15:32:00.690Z,-1.60
2017-12-03T15:34:28.238Z,-1.70
2017-12-03T15:36:56.536Z,-1.60
2017-12-03T15:39:24.082Z,-1.70
2017-12-03T15:41:51.626Z,-1.60
2017-12-03T15:44:19.934Z,-1.60
2017-12-03T15:46:47.450Z,-1.60
2017-12-03T15:49:14.993Z,-1.60
2017-12-03T15:51:42.522Z,-1.60
2017-12-03T15:54:10.066Z,-1.50
2017-12-03T15:56:37.598Z,-1.60
2017-12-03T15:59:05.139Z,-1.70
2017-12-03T16:01:32.670Z,-1.70
2017-12-03T16:04:00.205Z,-1.60
2017-12-03T16:06:28.489Z,-1.60
2017-12-03T16:08:56.039Z,-1.70
2017-12-03T16:11:24.335Z,-1.60
2017-12-03T16:13:51.906Z,-1.60
2017-12-03T16:16:19.429Z,-1.60
2017-12-03T16:18:47.733Z,-1.60
2017-12-03T16:21:15.268Z,-1.60
2017-12-03T16:23:43.574Z,-1.60
2017-12-03T16:26:11.099Z,-1.70
2017-12-03T16:28:39.410Z,-1.60
2017-12-03T16:31:06.935Z,-1.60
2017-12-03T16:33:35.255Z,-1.50
2017-12-03T16:36:02.785Z,-1.50
2017-12-03T16:38:31.118Z,-1.60
2017-12-03T16:40:58.690Z,-1.60
2017-12-03T16:43:26.211Z,-1.60
2017-12-03T16:45:53.754Z,-1.50
2017-12-03T16:48:21.282Z,-1.50
2017-12-03T16:50:48.842Z,-1.50
2017-12-03T16:53:16.361Z,-1.60
2017-12-03T16:55:43.902Z,-1.50
2017-12-03T16:58:11.428Z,-1.50
2017-12-03T17:00:38.973Z,-1.50
2017-12-03T17:03:06.494Z,-1.50
2017-12-03T17:05:34.030Z,-1.50
2017-12-03T17:08:02.321Z,-1.50
2017-12-03T17:10:29.866Z,-1.50
2017-12-03T17:12:58.156Z,-1.60
2017-12-03T17:15:25.698Z,-1.50
2017-12-03T17:17:53.994Z,-1.60
2017-12-03T17:20:22.284Z,-1.60
2017-12-03T17:22:49.866Z,-1.50
2017-12-03T17:25:17.382Z,-1.50
2017-12-03T17:27:45.668Z,-1.50
2017-12-03T17:30:13.210Z,-1.60
2017-12-03T17:32:41.501Z,-1.50
2017-12-03T17:35:09.045Z,-1.50
2017-12-03T17:37:37.335Z,-1.50
2017-12-03T17:40:05.644Z,-1.50
2017-12-03T17:42:33.168Z,-1.50
2017-12-03T17:45:01.474Z,-1.40
2017-12-03T17:47:28.993Z,-1.40
2017-12-03T17:49:57.280Z,-1.40
2017-12-03T17:52:26.193Z,-1.40
2017-12-03T17:54:53.723Z,-1.40
2017-12-03T17:57:22.029Z,-1.50
2017-12-03T17:59:49.563Z,-1.50
2017-12-03T18:02:19.083Z,-1.50
2017-12-03T18:05:03.630Z,-1.40
2017-12-03T18:07:31.959Z,-1.40
2017-12-03T18:09:59.487Z,-1.40
2017-12-03T18:12:27.883Z,-1.30
2017-12-03T18:14:55.401Z,-1.30
2017-12-03T18:17:22.974Z,-1.30
2017-12-03T18:19:51.268Z,-1.30
2017-12-03T18:22:18.815Z,-1.30
2017-12-03T18:24:47.105Z,-1.30
2017-12-03T18:27:14.655Z,-1.30
2017-12-03T18:29:42.949Z,-1.30
2017-12-03T18:32:10.524Z,-1.30
2017-12-03T18:34:38.037Z,-1.30
2017-12-03T18:37:05.583Z,-1.20
2017-12-03T18:39:33.152Z,-1.20
2017-12-03T18:42:00.672Z,-1.20
2017-12-03T18:44:28.224Z,-1.30
2017-12-03T18:46:55.740Z,-1.30
2017-12-03T18:49:23.282Z,-1.30
2017-12-03T18:51:50.815Z,-1.30
2017-12-03T18:54:18.520Z,-1.30
2017-12-03T18:56:46.831Z,-1.30
2017-12-03T18:59:14.377Z,-1.30
2017-12-03T19:01:42.671Z,-1.30
2017-12-03T19:04:10.220Z,-1.30
2017-12-03T19:06:38.505Z,-1.30
2017-12-03T19:09:06.046Z,-1.30
2017-12-03T19:11:34.330Z,-1.30
2017-12-03T19:14:02.646Z,-1.30
2017-12-03T19:16:30.179Z,-1.30
2017-12-03T19:18:57.726Z,-1.20
2017-12-03T19:21:26.019Z,-1.20
2017-12-03T19:23:53.558Z,-1.20
2017-12-03T19:26:21.850Z,-1.20
2017-12-03T19:28:50.162Z,-1.20
2017-12-03T19:31:17.685Z,-1.20
2017-12-03T19:33:46.019Z,-1.10
2017-12-03T19:36:14.310Z,-1.10
2017-12-03T19:38:41.845Z,-1.10
2017-12-03T19:41:09.387Z,-1.10
2017-12-03T19:43:36.977Z,-1.00
2017-12-03T19:46:04.489Z,-1.10
2017-12-03T19:48:32.014Z,-1.10
2017-12-03T19:50:59.559Z,-1.10
2017-12-03T19:53:27.125Z,-1.10
2017-12-03T19:55:54.666Z,-1.10
2017-12-03T19:58:22.194Z,-1.20
2017-12-03T20:00:50.507Z,-1.10
2017-12-03T20:03:18.077Z,-1.10
2017-12-03T20:05:45.631Z,-1.10
2017-12-03T20:08:13.193Z,-1.10
2017-12-03T20:10:40.738Z,-1.10
2017-12-03T20:13:08.267Z,-1.10
2017-12-03T20:15:36.579Z,-1.00
2017-12-03T20:18:04.144Z,-1.00
2017-12-03T20:20:31.670Z,-1.00
2017-12-03T20:22:59.984Z,-1.00
2017-12-03T20:25:27.507Z,-1.00
2017-12-03T20:27:55.053Z,-1.00
2017-12-03T20:30:22.579Z,-1.00
2017-12-03T20:32:50.121Z,-1.00
2017-12-03T20:35:17.651Z,-1.00
2017-12-03T20:37:45.966Z,-1.00
2017-12-03T20:40:13.490Z,-1.00
2017-12-03T20:42:41.801Z,-1.00
2017-12-03T20:45:09.319Z,-1.00
2017-12-03T20:47:37.649Z,-0.90
2017-12-03T20:50:05.179Z,-1.00
2017-12-03T20:52:33.470Z,-0.90
2017-12-03T20:55:01.033Z,-0.90
2017-12-03T20:57:28.559Z,-0.90
2017-12-03T20:59:56.874Z,-0.90
2017-12-03T21:02:24.395Z,-0.90
2017-12-03T21:04:51.948Z,-0.90
2017-12-03T21:07:19.473Z,-0.80
2017-12-03T21:09:47.018Z,-0.80
2017-12-03T21:12:14.547Z,-0.80
2017-12-03T21:14:42.856Z,-0.80
2017-12-03T21:17:10.386Z,-0.80
2017-12-03T21:19:38.706Z,-0.80
2017-12-03T21:22:06.239Z,-0.80
2017-12-03T21:24:33.762Z,-0.80
2017-12-03T21:27:01.305Z,-0.80
2017-12-03T21:29:28.827Z,-0.80
2017-12-03T21:31:56.370Z,-0.80
2017-12-03T21:34:24.658Z,-0.80
2017-12-03T21:36:52.199Z,-0.80
2017-12-03T21:39:19.722Z,-0.80
2017-12-03T21:41:47.262Z,-0.80
2017-12-03T21:44:14.783Z,-0.80
2017-12-03T21:46:43.091Z,-0.90
2017-12-03T21:49:10.645Z,-0.90
2017-12-03T21:51:38.190Z,-0.90
2017-12-03T21:54:06.480Z,-0.80
2017-12-03T21:56:34.022Z,-0.80
2017-12-03T21:59:02.311Z,-0.70
2017-12-03T22:01:29.857Z,-0.70
2017-12-03T22:03:58.150Z,-0.80
2017-12-03T22:06:25.693Z,-0.80
2017-12-03T22:08:53.985Z,-0.70
2017-12-03T22:11:22.300Z,-0.80
2017-12-03T22:13:49.825Z,-0.80
2017-12-03T22:16:18.139Z,-0.70
2017-12-03T22:18:45.663Z,-0.80
2017-12-03T22:21:13.974Z,-0.70
2017-12-03T22:23:41.494Z,-0.70
2017-12-03T22:26:09.835Z,-0.70
2017-12-03T22:28:37.358Z,-0.70
2017-12-03T22:31:04.882Z,-0.70
2017-12-03T22:33:32.431Z,-0.70
2017-12-03T22:35:59.962Z,-0.70
2017-12-03T22:38:27.508Z,-0.70
2017-12-03T22:40:55.035Z,-0.70
2017-12-03T22:43:23.349Z,-0.70
2017-12-03T22:45:50.874Z,-0.60
2017-12-03T22:48:19.173Z,-0.60
2017-12-03T22:50:46.699Z,-0.60
2017-12-03T22:53:14.242Z,-0.60
2017-12-03T22:55:41.758Z,-0.60
2017-12-03T22:58:09.298Z,-0.60
2017-12-03T23:00:37.582Z,-0.60
2017-12-03T23:03:05.893Z,-0.60
2017-12-03T23:05:33.423Z,-0.60
2017-12-03T23:08:01.730Z,-0.50
2017-12-03T23:10:29.252Z,-0.60
2017-12-03T23:12:57.566Z,-0.40
2017-12-03T23:15:25.085Z,-0.50
2017-12-03T23:17:53.374Z,-0.40
2017-12-03T23:20:21.686Z,-0.40
2017-12-03T23:22:49.210Z,-0.40
2017-12-03T23:25:17.520Z,-0.40
2017-12-03T23:27:45.042Z,-0.40
2017-12-03T23:30:13.366Z,-0.40
2017-12-03T23:32:40.887Z,-0.50
2017-12-03T23:35:09.198Z,-0.50
2017-12-03T23:37:36.717Z,-0.50
2017-12-03T23:40:05.027Z,-0.40
2017-12-03T23:42:32.550Z,-0.50
2017-12-03T23:45:00.086Z,-0.40
2017-12-03T23:47:27.613Z,-0.40
2017-12-03T23:49:55.158Z,-0.50
2017-12-03T23:52:22.687Z,-0.50
2017-12-03T23:54:50.231Z,-0.40
2017-12-03T23:57:17.749Z,-0.40
2017-12-03T23:59:45.297Z,-0.40
